createdAt,value
2019-04-09T00:00:26.963Z,6.60
2019-04-09T00:03:14.110Z,6.50
2019-04-09T00:05:44.571Z,6.50
2019-04-09T00:08:15.420Z,6.00
2019-04-09T00:10:45.385Z,6.20
2019-04-09T00:13:14.980Z,6.00
2019-04-09T00:15:46.628Z,5.90
2019-04-09T00:18:17.352Z,6.20
2019-04-09T00:20:47.083Z,6.40
2019-04-09T00:23:16.641Z,6.20
2019-04-09T00:25:46.786Z,5.80
2019-04-09T00:28:17.545Z,6.20
2019-04-09T00:30:47.505Z,6.40
2019-04-09T00:33:17.679Z,5.80
2019-04-09T00:35:47.617Z,5.70
2019-04-09T00:38:17.404Z,5.60
2019-04-09T00:40:47.014Z,5.70
2019-04-09T00:43:16.904Z,5.60
2019-04-09T00:45:46.783Z,5.50
2019-04-09T00:48:16.361Z,5.30
2019-04-09T00:50:46.020Z,5.20
2019-04-09T00:53:15.977Z,5.40
2019-04-09T00:55:45.934Z,5.20
2019-04-09T00:58:16.344Z,4.90
2019-04-09T01:00:53.807Z,5.20
2019-04-09T01:03:24.050Z,5.20
2019-04-09T01:05:53.936Z,5.30
2019-04-09T01:08:23.550Z,5.00
2019-04-09T01:10:53.273Z,5.60
2019-04-09T01:13:26.365Z,5.50
2019-04-09T01:15:58.368Z,5.80
2019-04-09T01:18:28.036Z,4.90
2019-04-09T01:20:58.469Z,5.10
2019-04-09T01:23:28.617Z,5.60
2019-04-09T01:26:11.662Z,5.50
2019-04-09T01:28:53.524Z,4.90
2019-04-09T01:31:41.856Z,5.30
2019-04-09T01:34:48.980Z,5.00
2019-04-09T01:37:36.053Z,4.80
2019-04-09T01:40:21.558Z,4.80
2019-04-09T01:43:18.228Z,4.90
2019-04-09T01:46:24.663Z,4.60
2019-04-09T01:49:11.573Z,4.60
2019-04-09T01:52:07.538Z,4.90
2019-04-09T01:54:50.453Z,5.10
2019-04-09T01:57:45.837Z,4.50
2019-04-09T02:00:32.860Z,4.50
2019-04-09T02:03:25.022Z,5.00
2019-04-09T02:06:13.703Z,4.70
2019-04-09T02:09:06.149Z,4.50
2019-04-09T02:11:57.671Z,4.30
2019-04-09T02:14:52.271Z,4.30
2019-04-09T02:17:39.144Z,4.30
2019-04-09T02:20:23.235Z,4.30
2019-04-09T02:23:01.315Z,4.10
2019-04-09T02:26:04.666Z,4.10
2019-04-09T02:29:02.429Z,4.40
2019-04-09T02:31:48.817Z,4.10
2019-04-09T02:34:37.565Z,4.40
2019-04-09T02:37:30.396Z,4.50
2019-04-09T02:40:20.513Z,4.30
2019-04-09T02:43:10.343Z,4.30
2019-04-09T02:45:59.954Z,4.30
2019-04-09T02:48:39.469Z,4.20
2019-04-09T02:51:26.705Z,4.00
2019-04-09T02:54:18.746Z,4.00
2019-04-09T02:57:05.987Z,4.20
2019-04-09T02:59:48.957Z,4.10
2019-04-09T03:02:25.872Z,4.00
2019-04-09T03:05:02.170Z,4.20
2019-04-09T03:07:55.064Z,4.00
2019-04-09T03:10:38.397Z,3.90
2019-04-09T03:13:26.137Z,3.90
2019-04-09T03:16:14.262Z,3.80
2019-04-09T03:19:18.580Z,4.00
2019-04-09T03:22:13.615Z,3.80
2019-04-09T03:24:57.140Z,3.90
2019-04-09T03:28:02.860Z,3.80
2019-04-09T03:30:32.647Z,3.90
2019-04-09T03:33:21.547Z,3.90
2019-04-09T03:36:10.426Z,3.90
2019-04-09T03:38:53.148Z,3.80
2019-04-09T03:41:39.107Z,4.00
2019-04-09T03:44:30.446Z,3.80
2019-04-09T03:47:10.457Z,3.60
2019-04-09T03:50:03.164Z,3.80
2019-04-09T03:53:01.252Z,3.60
2019-04-09T03:56:00.270Z,3.70
2019-04-09T03:58:39.854Z,3.80
2019-04-09T04:01:41.160Z,3.60
2019-04-09T04:04:19.474Z,3.60
2019-04-09T04:07:05.366Z,3.80
2019-04-09T04:09:56.962Z,3.80
2019-04-09T04:12:51.357Z,3.70
2019-04-09T04:15:38.983Z,3.70
2019-04-09T04:18:27.642Z,3.50
2019-04-09T04:21:04.471Z,3.50
2019-04-09T04:24:05.842Z,3.50
2019-04-09T04:26:56.845Z,3.30
2019-04-09T04:29:45.940Z,3.60
2019-04-09T04:32:25.055Z,3.30
2019-04-09T04:35:12.364Z,3.20
2019-04-09T04:38:00.990Z,3.50
2019-04-09T04:40:39.490Z,3.30
2019-04-09T04:43:27.384Z,3.20
2019-04-09T04:46:25.067Z,3.30
2019-04-09T04:49:10.862Z,3.50
2019-04-09T04:52:09.053Z,3.30
2019-04-09T04:54:58.228Z,3.20
2019-04-09T04:57:48.178Z,3.10
2019-04-09T05:00:27.471Z,3.10
2019-04-09T05:03:34.498Z,3.20
2019-04-09T05:06:30.348Z,3.30
2019-04-09T05:09:24.232Z,3.20
2019-04-09T05:12:18.848Z,3.20
2019-04-09T05:15:03.557Z,3.10
2019-04-09T05:17:41.282Z,3.40
2019-04-09T05:20:29.103Z,3.40
2019-04-09T05:23:11.590Z,3.50
2019-04-09T05:25:59.825Z,3.50
2019-04-09T05:28:50.868Z,3.40
2019-04-09T05:31:39.044Z,3.60
2019-04-09T05:34:42.762Z,3.70
2019-04-09T05:37:40.777Z,3.90
2019-04-09T05:40:32.828Z,3.90
2019-04-09T05:43:30.225Z,3.90
2019-04-09T05:46:26.105Z,3.80
2019-04-09T05:49:13.838Z,3.70
2019-04-09T05:52:01.378Z,4.10
2019-04-09T05:54:53.906Z,4.30
2019-04-09T05:57:46.572Z,4.30
2019-04-09T06:00:48.982Z,4.60
2019-04-09T06:03:43.555Z,4.60
2019-04-09T06:06:38.449Z,4.70
2019-04-09T06:09:26.242Z,5.10
2019-04-09T06:11:56.637Z,5.00
2019-04-09T06:14:27.330Z,5.00
2019-04-09T06:16:57.113Z,5.00
2019-04-09T06:19:27.383Z,5.70
2019-04-09T06:21:57.313Z,5.50
2019-04-09T06:24:27.928Z,5.30
2019-04-09T06:26:57.733Z,6.00
2019-04-09T06:29:27.932Z,5.90
2019-04-09T06:31:59.980Z,6.00
2019-04-09T06:34:38.994Z,6.10
2019-04-09T06:37:39.857Z,6.20
2019-04-09T06:40:31.226Z,6.90
2019-04-09T06:43:32.406Z,7.50
2019-04-09T06:46:10.335Z,6.90
2019-04-09T06:49:04.052Z,6.60
2019-04-09T06:51:47.889Z,7.50
2019-04-09T06:54:32.520Z,8.30
2019-04-09T06:57:30.244Z,9.20
2019-04-09T07:00:15.827Z,9.30
2019-04-09T07:03:02.900Z,8.10
2019-04-09T07:05:55.836Z,7.60
2019-04-09T07:08:41.609Z,7.50
2019-04-09T07:11:28.886Z,7.90
2019-04-09T07:14:35.629Z,9.10
2019-04-09T07:17:19.108Z,8.40
2019-04-09T07:20:26.563Z,9.70
2019-04-09T07:23:18.620Z,10.10
2019-04-09T07:26:06.741Z,9.00
2019-04-09T07:29:11.286Z,8.50
2019-04-09T07:32:09.069Z,9.60
2019-04-09T07:35:00.617Z,9.00
2019-04-09T07:37:38.932Z,9.30
2019-04-09T07:40:46.306Z,8.50
2019-04-09T07:43:28.605Z,9.30
2019-04-09T07:46:16.369Z,10.90
2019-04-09T07:49:09.714Z,10.40
2019-04-09T07:51:57.199Z,11.90
2019-04-09T07:54:40.754Z,8.80
2019-04-09T07:57:22.107Z,10.20
2019-04-09T08:00:23.275Z,9.20
2019-04-09T08:03:13.377Z,9.80
2019-04-09T08:06:02.423Z,10.80
2019-04-09T08:08:39.300Z,11.10
2019-04-09T08:11:34.409Z,11.80
2019-04-09T08:14:24.586Z,10.60
2019-04-09T08:17:13.657Z,11.10
2019-04-09T08:20:03.737Z,10.40
2019-04-09T08:22:41.701Z,11.00
2019-04-09T08:25:42.135Z,13.00
2019-04-09T08:28:29.380Z,10.50
2019-04-09T08:31:22.107Z,10.20
2019-04-09T08:34:12.174Z,11.50
2019-04-09T08:37:03.735Z,11.50
2019-04-09T08:39:55.405Z,13.30
2019-04-09T08:42:34.881Z,12.70
2019-04-09T08:45:26.020Z,13.50
2019-04-09T08:48:14.577Z,12.30
2019-04-09T08:51:04.313Z,11.60
2019-04-09T08:53:51.394Z,13.70
2019-04-09T08:56:25.506Z,14.00
2019-04-09T08:59:20.362Z,14.10
2019-04-09T09:02:19.205Z,15.30
2019-04-09T09:05:13.642Z,14.80
2019-04-09T09:07:59.230Z,14.10
2019-04-09T09:10:56.278Z,14.90
2019-04-09T09:13:45.547Z,14.90
2019-04-09T09:16:27.085Z,15.50
2019-04-09T09:19:30.351Z,14.70
2019-04-09T09:22:14.457Z,14.00
2019-04-09T09:25:02.761Z,14.30
2019-04-09T09:27:59.512Z,12.20
2019-04-09T09:30:56.409Z,11.40
2019-04-09T09:33:34.532Z,14.50
2019-04-09T09:36:18.436Z,12.20
2019-04-09T09:39:04.211Z,15.00
2019-04-09T09:41:50.704Z,15.60
2019-04-09T09:44:45.196Z,13.90
2019-04-09T09:47:36.849Z,14.90
2019-04-09T09:50:26.478Z,14.50
2019-04-09T09:53:15.455Z,15.50
2019-04-09T09:56:05.339Z,14.30
2019-04-09T09:59:00.800Z,14.90
2019-04-09T10:01:59.638Z,13.30
2019-04-09T10:04:54.322Z,14.90
2019-04-09T10:07:50.911Z,11.60
2019-04-09T10:10:36.228Z,12.70
2019-04-09T10:13:42.742Z,13.00
2019-04-09T10:16:27.686Z,13.00
2019-04-09T10:19:32.041Z,13.30
2019-04-09T10:22:25.512Z,13.30
2019-04-09T10:25:15.474Z,12.80
2019-04-09T10:27:57.897Z,12.90
2019-04-09T10:30:58.061Z,14.30
2019-04-09T10:33:46.842Z,13.60
2019-04-09T10:36:39.356Z,15.20
2019-04-09T10:39:41.168Z,14.90
2019-04-09T10:42:16.909Z,15.10
2019-04-09T10:45:09.001Z,16.40
2019-04-09T10:48:13.463Z,16.00
2019-04-09T10:51:00.772Z,15.10
2019-04-09T10:53:48.208Z,14.70
2019-04-09T10:56:40.822Z,16.40
2019-04-09T10:59:24.047Z,17.10
2019-04-09T11:02:17.588Z,15.70
2019-04-09T11:05:12.096Z,16.70
2019-04-09T11:07:57.756Z,15.10
2019-04-09T11:10:50.655Z,16.20
2019-04-09T11:13:34.660Z,13.70
2019-04-09T11:16:33.858Z,14.40
2019-04-09T11:19:29.517Z,13.90
2019-04-09T11:22:07.056Z,13.10
2019-04-09T11:25:04.793Z,14.30
2019-04-09T11:28:02.675Z,14.80
2019-04-09T11:30:52.982Z,15.20
2019-04-09T11:33:53.685Z,13.80
2019-04-09T11:36:41.252Z,15.30
2019-04-09T11:39:27.910Z,14.90
2019-04-09T11:42:15.073Z,14.50
2019-04-09T11:45:02.539Z,15.70
2019-04-09T11:47:57.222Z,13.60
2019-04-09T11:50:38.360Z,14.70
2019-04-09T11:53:26.279Z,16.10
2019-04-09T11:56:17.989Z,16.40
2019-04-09T11:59:23.506Z,15.30
2019-04-09T12:02:07.772Z,14.90
2019-04-09T12:04:54.069Z,14.00
2019-04-09T12:07:52.556Z,13.40
2019-04-09T12:10:38.736Z,14.20
2019-04-09T12:13:22.358Z,12.90
2019-04-09T12:16:09.576Z,14.80
2019-04-09T12:19:01.105Z,13.90
2019-04-09T12:21:45.656Z,13.50
2019-04-09T12:24:35.599Z,14.90
2019-04-09T12:27:24.705Z,13.30
2019-04-09T12:30:13.330Z,14.60
2019-04-09T12:33:19.844Z,15.60
2019-04-09T12:36:02.605Z,14.40
2019-04-09T12:38:49.949Z,13.40
2019-04-09T12:42:01.707Z,13.50
2019-04-09T12:45:16.131Z,13.60
2019-04-09T12:48:07.469Z,14.10
2019-04-09T12:51:11.244Z,14.40
2019-04-09T12:53:56.597Z,15.80
2019-04-09T12:56:38.123Z,15.20
2019-04-09T12:59:27.347Z,14.90
2019-04-09T13:02:25.211Z,14.70
2019-04-09T13:05:03.617Z,15.20
2019-04-09T13:07:54.925Z,13.10
2019-04-09T13:10:42.205Z,15.30
2019-04-09T13:13:38.593Z,14.20
2019-04-09T13:16:27.828Z,13.80
2019-04-09T13:19:17.331Z,13.60
2019-04-09T13:22:05.900Z,13.50
2019-04-09T13:24:47.321Z,13.60
2019-04-09T13:27:45.095Z,14.60
2019-04-09T13:30:46.009Z,15.40
2019-04-09T13:33:30.903Z,14.30
2019-04-09T13:36:22.247Z,15.00
2019-04-09T13:39:09.313Z,15.00
2019-04-09T13:41:56.329Z,14.80
2019-04-09T13:44:45.102Z,15.10
2019-04-09T13:47:27.766Z,15.20
2019-04-09T13:50:28.617Z,13.90
2019-04-09T13:52:58.394Z,14.80
2019-04-09T13:55:28.250Z,14.10
2019-04-09T13:57:58.252Z,14.30
2019-04-09T14:00:29.055Z,14.40
2019-04-09T14:03:21.929Z,14.00
2019-04-09T14:05:38.806Z,13.50
2019-04-09T14:08:08.803Z,15.00
2019-04-09T14:10:47.112Z,14.40
2019-04-09T14:13:09.879Z,15.20
2019-04-09T14:15:40.575Z,13.50
2019-04-09T14:18:10.315Z,14.90
2019-04-09T14:20:42.283Z,14.60
2019-04-09T14:23:12.153Z,15.00
2019-04-09T14:25:44.258Z,14.30
2019-04-09T14:28:15.559Z,13.00
2019-04-09T14:30:45.263Z,13.70
2019-04-09T14:33:17.777Z,14.60
2019-04-09T14:35:47.946Z,13.20
2019-04-09T14:38:18.303Z,13.20
2019-04-09T14:40:48.299Z,14.90
2019-04-09T14:43:19.245Z,14.50
2019-04-09T14:45:49.139Z,13.40
2019-04-09T14:48:19.170Z,14.50
2019-04-09T14:50:50.358Z,13.40
2019-04-09T14:53:20.619Z,15.00
2019-04-09T14:55:51.283Z,14.10
2019-04-09T14:58:22.730Z,13.50
2019-04-09T15:00:54.865Z,14.90
2019-04-09T15:03:28.616Z,13.80
2019-04-09T15:05:57.362Z,13.10
2019-04-09T15:08:27.464Z,13.60
2019-04-09T15:10:57.357Z,14.20
2019-04-09T15:13:28.341Z,14.60
2019-04-09T15:15:58.151Z,13.80
2019-04-09T15:18:27.937Z,13.10
2019-04-09T15:21:15.550Z,14.10
2019-04-09T15:23:45.537Z,13.70
2019-04-09T15:26:15.489Z,12.70
2019-04-09T15:28:45.202Z,14.50
2019-04-09T15:31:15.108Z,14.30
2019-04-09T15:33:45.247Z,14.20
2019-04-09T15:36:15.576Z,15.60
2019-04-09T15:38:48.272Z,14.10
2019-04-09T15:41:17.691Z,12.70
2019-04-09T15:43:47.644Z,13.10
2019-04-09T15:46:17.653Z,13.20
2019-04-09T15:48:48.861Z,13.00
2019-04-09T15:51:19.321Z,13.00
2019-04-09T15:53:49.252Z,12.70
2019-04-09T15:56:19.225Z,12.90
2019-04-09T15:58:49.090Z,12.20
2019-04-09T16:01:19.267Z,13.60
2019-04-09T16:03:54.472Z,14.60
2019-04-09T16:06:21.812Z,13.60
2019-04-09T16:08:52.152Z,13.10
2019-04-09T16:11:22.455Z,12.30
2019-04-09T16:13:52.339Z,13.80
2019-04-09T16:16:22.148Z,14.00
2019-04-09T16:18:51.849Z,13.30
2019-04-09T16:21:24.481Z,13.20
2019-04-09T16:23:56.974Z,13.30
2019-04-09T16:26:26.806Z,13.80
2019-04-09T16:28:56.797Z,12.70
2019-04-09T16:31:26.579Z,13.90
2019-04-09T16:34:02.550Z,12.90
2019-04-09T16:36:27.913Z,13.90
2019-04-09T16:38:57.922Z,14.40
2019-04-09T16:41:27.863Z,14.20
2019-04-09T16:43:58.224Z,14.10
2019-04-09T16:46:28.561Z,13.00
2019-04-09T16:48:58.511Z,13.90
2019-04-09T16:51:29.031Z,13.80
2019-04-09T16:53:59.968Z,13.40
2019-04-09T16:56:31.875Z,13.30
2019-04-09T16:59:04.098Z,13.80
2019-04-09T17:01:34.020Z,14.00
2019-04-09T17:04:13.100Z,13.30
2019-04-09T17:06:35.150Z,12.50
2019-04-09T17:09:24.521Z,13.10
2019-04-09T17:11:42.191Z,13.40
2019-04-09T17:14:13.210Z,13.60
2019-04-09T17:16:44.628Z,12.90
2019-04-09T17:19:14.991Z,13.10
2019-04-09T17:21:45.647Z,12.40
2019-04-09T17:24:16.763Z,13.30
2019-04-09T17:26:47.672Z,13.70
2019-04-09T17:29:19.061Z,12.80
2019-04-09T17:31:49.411Z,13.20
2019-04-09T17:34:29.634Z,13.30
2019-04-09T17:36:50.433Z,13.30
2019-04-09T17:39:21.902Z,13.20
2019-04-09T17:42:02.831Z,12.30
2019-04-09T17:44:24.711Z,12.20
2019-04-09T17:46:54.965Z,12.70
2019-04-09T17:49:26.012Z,11.40
2019-04-09T17:51:57.617Z,12.20
2019-04-09T17:54:28.162Z,11.70
2019-04-09T17:56:58.644Z,11.40
2019-04-09T17:59:29.211Z,10.60
2019-04-09T18:01:59.942Z,10.60
2019-04-09T18:04:42.950Z,10.00
2019-04-09T18:07:04.445Z,10.70
2019-04-09T18:09:34.727Z,10.40
2019-04-09T18:12:05.509Z,10.20
2019-04-09T18:14:36.581Z,10.20
2019-04-09T18:17:07.016Z,10.20
2019-04-09T18:19:37.067Z,10.30
2019-04-09T18:22:07.409Z,10.00
2019-04-09T18:24:37.736Z,9.60
2019-04-09T18:27:07.717Z,10.00
2019-04-09T18:29:37.755Z,10.50
2019-04-09T18:32:09.553Z,9.90
2019-04-09T18:34:50.615Z,9.80
2019-04-09T18:37:17.762Z,9.40
2019-04-09T18:39:50.059Z,9.30
2019-04-09T18:42:19.804Z,8.90
2019-04-09T18:44:52.673Z,9.30
2019-04-09T18:47:21.994Z,9.50
2019-04-09T18:49:52.568Z,8.80
2019-04-09T18:52:25.071Z,8.40
2019-04-09T18:54:56.292Z,8.40
2019-04-09T18:57:26.426Z,8.60
2019-04-09T18:59:56.384Z,9.50
2019-04-09T19:02:26.936Z,8.50
2019-04-09T19:05:06.329Z,8.60
2019-04-09T19:07:30.512Z,9.20
2019-04-09T19:10:00.949Z,8.60
2019-04-09T19:12:32.221Z,7.80
2019-04-09T19:15:02.470Z,8.10
2019-04-09T19:17:32.422Z,7.60
2019-04-09T19:20:03.224Z,8.50
2019-04-09T19:22:35.856Z,7.80
2019-04-09T19:25:08.147Z,8.00
2019-04-09T19:27:39.298Z,8.00
2019-04-09T19:32:40.951Z,7.20
2019-04-09T19:35:18.883Z,6.70
2019-04-09T19:37:42.646Z,6.90
2019-04-09T19:40:52.176Z,6.70
2019-04-09T19:43:22.193Z,6.80
2019-04-09T19:45:52.183Z,6.80
2019-04-09T19:48:26.274Z,6.80
2019-04-09T19:50:56.350Z,6.70
2019-04-09T19:53:26.443Z,6.70
2019-04-09T19:55:56.806Z,6.80
2019-04-09T19:58:41.199Z,7.20
2019-04-09T20:01:05.800Z,6.40
2019-04-09T20:03:34.196Z,6.40
2019-04-09T20:06:04.092Z,6.00
2019-04-09T20:08:33.863Z,6.40
2019-04-09T20:11:03.840Z,6.30
2019-04-09T20:13:33.455Z,5.90
2019-04-09T20:16:04.557Z,6.20
2019-04-09T20:18:34.606Z,5.70
2019-04-09T20:21:04.888Z,5.90
2019-04-09T20:23:35.225Z,6.00
2019-04-09T20:26:04.913Z,5.70
2019-04-09T20:28:35.185Z,6.00
2019-04-09T20:31:05.581Z,5.50
2019-04-09T20:33:35.272Z,6.00
2019-04-09T20:36:06.935Z,6.10
2019-04-09T20:38:36.777Z,6.10
2019-04-09T20:41:06.437Z,5.60
2019-04-09T20:43:36.543Z,5.30
2019-04-09T20:46:07.190Z,5.30
2019-04-09T20:48:39.622Z,5.50
2019-04-09T20:51:10.394Z,5.40
2019-04-09T20:53:40.379Z,5.50
2019-04-09T20:56:10.825Z,5.60
2019-04-09T20:58:40.701Z,5.70
2019-04-09T21:01:18.890Z,5.50
2019-04-09T21:03:59.246Z,5.10
2019-04-09T21:06:28.803Z,5.30
2019-04-09T21:08:58.726Z,5.10
2019-04-09T21:11:28.626Z,5.20
2019-04-09T21:13:58.418Z,5.20
2019-04-09T21:16:28.801Z,5.00
2019-04-09T21:18:58.621Z,4.60
2019-04-09T21:21:29.345Z,4.90
2019-04-09T21:23:59.433Z,4.50
2019-04-09T21:26:29.765Z,4.70
2019-04-09T21:28:59.915Z,4.60
2019-04-09T21:31:29.930Z,4.60
2019-04-09T21:33:59.468Z,4.50
2019-04-09T21:36:29.249Z,4.40
2019-04-09T21:38:58.959Z,4.80
2019-04-09T21:41:28.589Z,4.30
2019-04-09T21:43:58.519Z,4.10
2019-04-09T21:46:30.819Z,4.30
2019-04-09T21:49:00.159Z,4.50
2019-04-09T21:51:29.946Z,4.20
2019-04-09T21:54:02.220Z,4.40
2019-04-09T21:56:31.180Z,4.30
2019-04-09T21:59:02.199Z,4.30
2019-04-09T22:01:33.513Z,4.30
2019-04-09T22:04:03.607Z,4.00
2019-04-09T22:06:35.431Z,4.00
2019-04-09T22:09:10.189Z,4.00
2019-04-09T22:11:41.278Z,4.20
2019-04-09T22:14:11.011Z,4.00
2019-04-09T22:16:43.205Z,4.40
2019-04-09T22:19:14.527Z,4.50
2019-04-09T22:21:52.498Z,4.60
2019-04-09T22:24:25.407Z,4.60
2019-04-09T22:26:56.094Z,4.70
2019-04-09T22:29:31.994Z,5.10
2019-04-09T22:32:01.875Z,4.60
2019-04-09T22:34:32.577Z,4.30
2019-04-09T22:37:03.480Z,4.00
2019-04-09T22:39:34.177Z,4.00
2019-04-09T22:42:05.574Z,4.40
2019-04-09T22:44:35.231Z,4.40
2019-04-09T22:47:09.144Z,4.20
2019-04-09T22:49:39.413Z,4.20
2019-04-09T22:52:13.031Z,3.80
2019-04-09T22:54:45.357Z,3.60
2019-04-09T22:57:15.744Z,3.30
2019-04-09T22:59:50.347Z,3.90
2019-04-09T23:02:54.346Z,3.90
2019-04-09T23:05:44.961Z,4.30
2019-04-09T23:08:19.637Z,4.00
2019-04-09T23:11:08.349Z,3.90
2019-04-09T23:13:39.744Z,3.50
2019-04-09T23:16:10.866Z,3.60
2019-04-09T23:18:41.606Z,2.90
2019-04-09T23:21:11.656Z,3.20
2019-04-09T23:23:41.396Z,3.50
2019-04-09T23:26:13.114Z,3.30
2019-04-09T23:28:43.460Z,3.40
2019-04-09T23:31:13.382Z,3.70
2019-04-09T23:33:44.801Z,3.40
2019-04-09T23:36:16.943Z,3.50
2019-04-09T23:38:46.931Z,3.50
2019-04-09T23:41:17.659Z,3.50
2019-04-09T23:43:47.585Z,3.00
2019-04-09T23:46:17.472Z,3.30
2019-04-09T23:48:47.057Z,2.80
2019-04-09T23:51:17.479Z,2.70
2019-04-09T23:53:50.006Z,3.00
2019-04-09T23:56:19.863Z,3.30
2019-04-09T23:58:49.760Z,3.50
